Time;durP1;ratioP1;P1;durP2;ratioP2;P2;SDS_P1;SDS_P2;PMS_P1;PMS_P2;Temp;Humidity;BMP_temperature;BMP_pressure;BME280_temperature;BME280_humidity;BME280_pressure;Samples;Min_cycle;Max_cycle;Signal;HPM_P1;HPM_P2
2022/09/23 00:00:31;;;;;;;5.40;4.90;;;9.50;1.00;;;;;;4987288;28;21039;-54
2022/09/23 00:02:58;;;;;;;6.83;5.03;;;9.50;1.00;;;;;;4988020;28;20270;-54
2022/09/23 00:05:27;;;;;;;5.77;5.27;;;9.50;1.00;;;;;;4988479;28;20198;-54
2022/09/23 00:07:54;;;;;;;5.80;5.20;;;9.50;1.00;;;;;;4986514;28;20440;-55
2022/09/23 00:10:20;;;;;;;5.10;4.60;;;9.50;1.00;;;;;;4990270;28;20889;-54
2022/09/23 00:12:46;;;;;;;9.43;5.13;;;9.50;1.00;;;;;;4988801;28;20452;-54
2022/09/23 00:15:12;;;;;;;5.57;5.00;;;9.50;1.00;;;;;;4989117;28;20428;-55
2022/09/23 00:17:37;;;;;;;5.33;4.93;;;9.50;1.00;;;;;;4988624;28;20191;-55
2022/09/23 00:20:03;;;;;;;6.27;4.90;;;9.50;1.00;;;;;;4989081;28;20221;-56
2022/09/23 00:22:29;;;;;;;5.07;4.67;;;9.50;1.00;;;;;;4989256;28;20282;-54
2022/09/23 00:24:54;;;;;;;5.10;4.60;;;9.40;1.00;;;;;;4986269;28;21245;-54
2022/09/23 00:27:20;;;;;;;5.53;5.03;;;9.40;1.00;;;;;;4989452;28;20643;-55
2022/09/23 00:29:46;;;;;;;5.43;4.53;;;9.40;1.00;;;;;;4987417;28;20268;-54
2022/09/23 00:32:12;;;;;;;5.13;4.73;;;9.30;1.00;;;;;;4988043;28;20237;-54
2022/09/23 00:34:38;;;;;;;6.30;5.70;;;9.30;1.00;;;;;;4987249;28;20455;-54
2022/09/23 00:37:03;;;;;;;4.97;4.50;;;9.30;1.00;;;;;;4987088;28;20411;-56
2022/09/23 00:39:29;;;;;;;6.70;4.80;;;9.20;1.00;;;;;;4982505;28;20281;-53
2022/09/23 00:41:55;;;;;;;5.97;5.30;;;9.30;1.00;;;;;;4981770;28;20201;-54
2022/09/23 00:44:42;;;;;;;7.40;5.20;;;9.20;1.00;;;;;;4949471;28;1052293;-54
2022/09/23 00:47:20;;;;;;;5.20;4.80;;;9.10;1.00;;;;;;4990063;28;20186;-55
2022/09/23 00:49:52;;;;;;;5.20;4.80;;;9.10;1.00;;;;;;4989478;28;21287;-55
2022/09/23 00:52:22;;;;;;;5.17;4.67;;;9.10;1.00;;;;;;4988981;28;20435;-55
2022/09/23 00:54:51;;;;;;;5.63;5.13;;;9.10;1.00;;;;;;4987317;28;20516;-54
2022/09/23 00:57:18;;;;;;;5.53;5.07;;;9.10;1.00;;;;;;4987140;28;20423;-55
2022/09/23 00:59:45;;;;;;;7.47;5.13;;;12.20;1.00;;;;;;4985844;28;20437;-52
2022/09/23 01:02:13;;;;;;;4.90;4.50;;;9.10;1.00;;;;;;4986927;28;20416;-56
2022/09/23 01:04:38;;;;;;;7.10;4.53;;;9.10;1.00;;;;;;4987333;28;20456;-57
2022/09/23 01:07:04;;;;;;;6.47;5.87;;;9.00;1.00;;;;;;4987131;28;20982;-53
2022/09/23 01:09:30;;;;;;;6.37;5.47;;;9.10;1.00;;;;;;4988013;28;20221;-55
2022/09/23 01:12:21;;;;;;;5.50;5.00;;;9.10;1.00;;;;;;4989418;28;20221;-56
2022/09/23 01:15:22;;;;;;;6.43;5.40;;;9.00;1.00;;;;;;4987051;28;20567;-55
2022/09/23 01:17:52;;;;;;;6.20;5.00;;;9.10;1.00;;;;;;4988868;28;20572;-53
2022/09/23 01:20:40;;;;;;;5.30;4.80;;;9.00;1.00;;;;;;4976592;28;20722;-54
2022/09/23 01:23:42;;;;;;;6.37;5.67;;;9.00;1.00;;;;;;4989336;28;20452;-54
2022/09/23 01:26:48;;;;;;;5.87;5.27;;;8.90;1.00;;;;;;4986659;28;20476;-54
2022/09/23 01:29:37;;;;;;;6.10;5.50;;;8.80;1.00;;;;;;4939314;28;20423;-53
2022/09/23 01:32:15;;;;;;;10.03;4.87;;;8.80;1.00;;;;;;4989909;28;20958;-55
2022/09/23 01:34:54;;;;;;;5.17;4.67;;;8.80;1.00;;;;;;4988245;28;20487;-55
2022/09/23 01:37:37;;;;;;;6.23;4.60;;;8.80;1.00;;;;;;4989906;28;20443;-53
2022/09/23 01:40:13;;;;;;;7.73;5.30;;;8.70;1.00;;;;;;4986708;28;20443;-54
2022/09/23 01:42:50;;;;;;;5.53;4.60;;;8.70;1.00;;;;;;4992074;28;20487;-55
2022/09/23 01:45:19;;;;;;;6.40;5.13;;;8.70;1.00;;;;;;4992645;28;20523;-54
2022/09/23 01:47:53;;;;;;;6.27;5.17;;;8.70;1.00;;;;;;4997141;28;20814;-53
2022/09/23 01:53:19;;;;;;;5.77;5.27;;;8.70;1.00;;;;;;4992365;28;20427;-55
2022/09/23 01:55:50;;;;;;;5.80;5.30;;;8.70;1.00;;;;;;4993124;28;20470;-55
2022/09/23 01:58:16;;;;;;;5.37;4.97;;;8.60;1.00;;;;;;4990622;28;21007;-56
2022/09/23 02:00:52;;;;;;;6.07;5.47;;;8.70;1.00;;;;;;4996011;28;20443;-55
2022/09/23 02:03:26;;;;;;;5.43;4.93;;;8.70;1.00;;;;;;4990027;28;20265;-55
2022/09/23 02:06:00;;;;;;;6.20;4.90;;;8.70;1.00;;;;;;4993104;28;20445;-55
2022/09/23 02:08:40;;;;;;;5.50;5.10;;;8.60;1.00;;;;;;4993209;28;20433;-56
2022/09/23 02:11:17;;;;;;;5.60;5.10;;;8.60;1.00;;;;;;4982453;28;20475;-54
2022/09/23 02:13:46;;;;;;;8.93;6.20;;;8.70;1.00;;;;;;4992912;28;20753;-55
2022/09/23 02:16:38;;;;;;;5.23;4.73;;;8.50;1.00;;;;;;4972759;28;20551;-57
2022/09/23 02:19:22;;;;;;;5.33;4.83;;;8.60;1.00;;;;;;4985196;28;20454;-54
2022/09/23 02:21:59;;;;;;;5.60;5.10;;;8.50;1.00;;;;;;4991488;28;20504;-54
2022/09/23 02:24:28;;;;;;;8.67;5.37;;;8.50;1.00;;;;;;4992749;28;20420;-55
2022/09/23 02:27:03;;;;;;;5.40;4.90;;;8.50;1.00;;;;;;4989541;28;20598;-55
2022/09/23 02:29:50;;;;;;;6.70;5.10;;;8.50;1.00;;;;;;4991606;28;20430;-55
2022/09/23 02:32:22;;;;;;;6.17;5.57;;;8.50;1.00;;;;;;4987851;28;20515;-55
2022/09/23 02:34:58;;;;;;;7.23;5.60;;;8.50;1.00;;;;;;4988227;28;20419;-55
2022/09/23 02:37:31;;;;;;;6.37;5.43;;;8.40;1.00;;;;;;4992455;28;20436;-56
2022/09/23 02:40:13;;;;;;;6.97;5.23;;;8.40;1.00;;;;;;4987728;28;20461;-53
2022/09/23 02:43:01;;;;;;;7.07;6.37;;;8.50;1.00;;;;;;4989521;28;20424;-56
2022/09/23 02:45:27;;;;;;;7.03;5.73;;;8.40;1.00;;;;;;4989749;28;21059;-54
2022/09/23 02:48:11;;;;;;;7.03;5.07;;;8.40;1.00;;;;;;4992353;28;20739;-55
2022/09/23 02:50:37;;;;;;;6.97;6.27;;;8.40;1.00;;;;;;4990233;28;20197;-55
2022/09/23 02:53:03;;;;;;;5.80;5.30;;;8.40;1.00;;;;;;4991312;28;20434;-54
2022/09/23 02:55:31;;;;;;;5.87;5.27;;;8.30;1.00;;;;;;4987922;28;20457;-56
2022/09/23 02:58:00;;;;;;;6.50;5.90;;;8.30;1.00;;;;;;4989370;28;20983;-55
2022/09/23 03:00:38;;;;;;;6.30;5.80;;;8.30;1.00;;;;;;4990202;28;20564;-53
2022/09/23 03:03:22;;;;;;;5.73;5.03;;;8.30;1.00;;;;;;4989728;28;20445;-55
2022/09/23 03:05:57;;;;;;;6.60;6.00;;;8.30;1.00;;;;;;4986295;28;20585;-55
2022/09/23 03:08:55;;;;;;;6.10;5.50;;;8.30;1.00;;;;;;4989902;28;20419;-56
2022/09/23 03:11:21;;;;;;;7.50;5.90;;;8.30;1.00;;;;;;4990404;28;20458;-55
2022/09/23 03:13:50;;;;;;;6.40;5.80;;;8.10;1.00;;;;;;4982131;28;20449;-55
2022/09/23 03:16:27;;;;;;;6.40;5.73;;;8.20;1.00;;;;;;4991727;28;20521;-54
2022/09/23 03:19:16;;;;;;;5.90;5.40;;;8.20;1.00;;;;;;4988964;28;20456;-55
2022/09/23 03:22:08;;;;;;;5.40;4.90;;;8.10;1.00;;;;;;4988905;28;20557;-55
2022/09/23 03:24:36;;;;;;;5.87;5.37;;;8.20;1.00;;;;;;4984810;28;20431;-56
2022/09/23 03:27:12;;;;;;;5.87;5.37;;;8.10;1.00;;;;;;4987652;28;20416;-54
2022/09/23 03:29:44;;;;;;;6.33;5.73;;;8.10;1.00;;;;;;4973886;28;20431;-55
2022/09/23 03:32:11;;;;;;;6.67;5.60;;;8.20;1.00;;;;;;4989019;28;20452;-54
2022/09/23 03:34:39;;;;;;;5.93;5.43;;;8.20;1.00;;;;;;4987344;28;20928;-55
2022/09/23 03:37:12;;;;;;;5.80;5.20;;;8.20;1.00;;;;;;4990576;28;20450;-55
2022/09/23 03:39:43;;;;;;;6.90;6.03;;;8.20;1.00;;;;;;4991628;28;20462;-56
2022/09/23 03:42:23;;;;;;;6.80;5.90;;;8.10;1.00;;;;;;4989223;28;20503;-54
2022/09/23 03:44:56;;;;;;;6.57;5.93;;;8.20;1.00;;;;;;4989257;28;20560;-55
2022/09/23 03:47:24;;;;;;;6.70;6.10;;;8.20;1.00;;;;;;4988741;28;20527;-54
2022/09/23 03:49:51;;;;;;;7.80;5.43;;;8.10;1.00;;;;;;4987564;28;20462;-55
2022/09/23 03:52:21;;;;;;;5.60;5.00;;;8.10;1.00;;;;;;4990200;28;20762;-54
2022/09/23 03:54:48;;;;;;;7.10;5.00;;;8.00;1.00;;;;;;4988937;28;21060;-55
2022/09/23 03:57:14;;;;;;;5.83;5.30;;;8.00;1.00;;;;;;4988642;28;20420;-54
2022/09/23 03:59:40;;;;;;;6.63;5.33;;;8.00;1.00;;;;;;4990639;28;20480;-55
2022/09/23 04:02:06;;;;;;;5.73;5.30;;;8.00;1.00;;;;;;4987369;28;20533;-54
2022/09/23 04:04:33;;;;;;;7.87;5.90;;;8.00;1.00;;;;;;4989174;28;20452;-54
2022/09/23 04:06:59;;;;;;;8.47;6.03;;;8.00;1.00;;;;;;4990979;28;20503;-55
2022/09/23 04:09:25;;;;;;;7.30;6.57;;;7.90;1.00;;;;;;4989908;28;20415;-56
2022/09/23 04:11:51;;;;;;;7.47;5.77;;;7.90;1.00;;;;;;4990741;28;20546;-54
2022/09/23 04:14:18;;;;;;;6.77;6.07;;;7.90;1.00;;;;;;4989608;28;20423;-53
2022/09/23 04:16:45;;;;;;;6.97;6.30;;;7.90;1.00;;;;;;4988612;28;20476;-54
2022/09/23 04:19:12;;;;;;;10.03;8.13;;;7.70;1.00;;;;;;4991238;28;20501;-54
2022/09/23 04:21:38;;;;;;;9.20;6.67;;;7.70;1.00;;;;;;4990657;28;20539;-56
2022/09/23 04:24:03;;;;;;;8.20;7.33;;;7.80;1.00;;;;;;4990224;28;20445;-54
2022/09/23 04:26:30;;;;;;;6.27;5.47;;;7.90;1.00;;;;;;4996816;28;20467;-51
2022/09/23 04:28:57;;;;;;;6.53;5.83;;;7.90;1.00;;;;;;4990175;28;20182;-56
2022/09/23 04:31:23;;;;;;;6.77;6.10;;;7.90;1.00;;;;;;4990553;28;20440;-53
2022/09/23 04:33:53;;;;;;;7.53;5.80;;;7.80;1.00;;;;;;4990065;28;20515;-54
2022/09/23 04:36:19;;;;;;;7.40;6.57;;;7.90;1.00;;;;;;4990409;28;20463;-56
2022/09/23 04:38:46;;;;;;;7.03;5.93;;;7.80;1.00;;;;;;4985990;28;20546;-54
2022/09/23 04:41:12;;;;;;;6.60;5.50;;;7.90;1.00;;;;;;4989777;28;20502;-61
2022/09/23 04:43:38;;;;;;;6.80;6.20;;;7.80;1.00;;;;;;4994179;28;20481;-60
2022/09/23 04:46:05;;;;;;;7.43;6.47;;;7.80;1.00;;;;;;5001556;28;20191;-61
2022/09/23 04:48:32;;;;;;;6.20;5.60;;;7.80;1.00;;;;;;4990829;28;20441;-60
2022/09/23 04:51:05;;;;;;;6.67;5.97;;;7.80;1.00;;;;;;4990114;28;20452;-59
2022/09/23 04:53:31;;;;;;;6.27;5.77;;;7.70;1.00;;;;;;4987307;28;20424;-60
2022/09/23 04:56:04;;;;;;;6.13;5.53;;;7.70;1.00;;;;;;4988913;28;20797;-60
2022/09/23 04:58:30;;;;;;;9.13;6.50;;;7.80;1.00;;;;;;4990346;28;20193;-60
2022/09/23 05:00:56;;;;;;;5.60;5.10;;;7.70;1.00;;;;;;4993367;28;20461;-60
2022/09/23 05:03:23;;;;;;;8.00;6.13;;;7.70;1.00;;;;;;4989937;28;20604;-59
2022/09/23 05:05:48;;;;;;;7.90;6.83;;;7.70;1.00;;;;;;4988345;28;20194;-60
2022/09/23 05:08:14;;;;;;;6.53;5.90;;;7.80;1.00;;;;;;4990491;28;20449;-60
2022/09/23 05:10:41;;;;;;;7.00;6.30;;;7.80;1.00;;;;;;4990086;28;20471;-60
2022/09/23 05:13:07;;;;;;;7.90;7.07;;;7.80;1.00;;;;;;4988433;28;21221;-60
2022/09/23 05:15:32;;;;;;;7.27;6.53;;;7.80;1.00;;;;;;4990748;28;20457;-59
2022/09/23 05:17:58;;;;;;;7.20;6.50;;;7.80;1.00;;;;;;4987832;28;20422;-60
2022/09/23 05:20:24;;;;;;;7.53;6.40;;;7.80;1.00;;;;;;4991866;28;20210;-60
2022/09/23 05:22:54;;;;;;;7.27;6.57;;;7.80;1.00;;;;;;4992844;28;20190;-59
2022/09/23 05:25:20;;;;;;;7.43;6.67;;;7.80;1.00;;;;;;4995850;28;20190;-59
2022/09/23 05:27:45;;;;;;;9.37;7.27;;;7.90;1.00;;;;;;4997649;28;20448;-60
2022/09/23 05:30:11;;;;;;;7.50;6.80;;;7.90;1.00;;;;;;4992850;28;20431;-60
2022/09/23 05:32:37;;;;;;;6.53;5.97;;;7.90;1.00;;;;;;4992995;28;20225;-60
2022/09/23 05:35:03;;;;;;;7.90;6.73;;;7.90;1.00;;;;;;4991954;28;20285;-60
2022/09/23 05:37:31;;;;;;;7.00;5.93;;;8.00;1.00;;;;;;4992623;28;20209;-60
2022/09/23 05:39:57;;;;;;;7.83;6.87;;;8.00;1.00;;;;;;4992767;28;20459;-60
2022/09/23 05:42:23;;;;;;;8.30;6.43;;;8.00;1.00;;;;;;4991936;28;20470;-59
2022/09/23 05:44:48;;;;;;;11.70;7.03;;;8.10;1.00;;;;;;4992212;28;20221;-60
2022/09/23 05:47:14;;;;;;;7.27;6.53;;;8.20;1.00;;;;;;4992252;28;20247;-59
2022/09/23 05:49:40;;;;;;;19.13;7.13;;;8.20;1.00;;;;;;4975061;28;20301;-60
2022/09/23 05:52:05;;;;;;;7.57;6.80;;;8.40;1.00;;;;;;4992110;28;20644;-60
2022/09/23 05:54:31;;;;;;;7.90;7.10;;;8.40;1.00;;;;;;4992703;28;20190;-61
2022/09/23 05:56:57;;;;;;;7.83;6.87;;;8.50;1.00;;;;;;4991796;28;20182;-59
2022/09/23 05:59:22;;;;;;;7.93;7.20;;;8.50;1.00;;;;;;4992158;28;20485;-60
2022/09/23 06:01:48;;;;;;;7.13;6.50;;;8.60;1.00;;;;;;4992802;28;20267;-60
2022/09/23 06:04:14;;;;;;;10.20;7.30;;;8.70;1.00;;;;;;4992460;28;20229;-60
2022/09/23 06:06:41;;;;;;;10.43;7.23;;;8.80;1.00;;;;;;4992329;28;20186;-60
2022/09/23 06:09:10;;;;;;;15.50;7.87;;;8.90;1.00;;;;;;4992371;28;20273;-59
2022/09/23 06:11:36;;;;;;;8.10;6.33;;;8.90;1.00;;;;;;4989916;28;20453;-60
2022/09/23 06:14:02;;;;;;;13.40;6.73;;;9.10;1.00;;;;;;4992484;28;20496;-62
2022/09/23 06:16:31;;;;;;;8.63;7.47;;;9.20;1.00;;;;;;4991237;28;20470;-60
2022/09/23 06:18:57;;;;;;;8.80;7.80;;;9.30;1.00;;;;;;4991550;28;20515;-60
2022/09/23 06:21:23;;;;;;;7.33;6.10;;;9.40;1.00;;;;;;4991607;28;20827;-58
2022/09/23 06:23:48;;;;;;;11.23;6.70;;;9.50;1.00;;;;;;4991460;28;20448;-60
2022/09/23 06:26:15;;;;;;;7.83;6.37;;;9.50;1.00;;;;;;4992098;28;20190;-60
2022/09/23 06:28:42;;;;;;;7.43;6.27;;;9.60;1.00;;;;;;4989157;28;20178;-61
2022/09/23 06:31:14;;;;;;;10.20;7.53;;;9.60;1.00;;;;;;4990866;28;20446;-59
2022/09/23 06:33:40;;;;;;;7.50;6.70;;;9.60;1.00;;;;;;4992078;28;20448;-60
2022/09/23 06:36:07;;;;;;;7.40;6.70;;;9.80;1.00;;;;;;4991526;28;20451;-60
2022/09/23 06:38:33;;;;;;;7.23;6.53;;;10.20;1.00;;;;;;4991315;28;20449;-60
2022/09/23 06:41:00;;;;;;;10.60;7.40;;;10.20;1.00;;;;;;4991171;28;20981;-60
2022/09/23 06:43:26;;;;;;;7.70;6.90;;;10.30;1.00;;;;;;4991611;28;20492;-60
2022/09/23 06:45:56;;;;;;;9.83;7.23;;;10.40;1.00;;;;;;4991405;28;20428;-60
2022/09/23 06:48:25;;;;;;;12.87;6.80;;;10.50;1.00;;;;;;4991293;28;20194;-61
2022/09/23 06:50:53;;;;;;;8.23;6.77;;;10.70;1.00;;;;;;4989839;28;20499;-60
2022/09/23 06:53:23;;;;;;;8.63;6.80;;;10.90;1.00;;;;;;4991841;28;20837;-59
2022/09/23 06:56:01;;;;;;;10.07;7.63;;;11.00;1.00;;;;;;4988718;28;20455;-59
2022/09/23 06:58:27;;;;;;;10.93;7.20;;;11.00;1.00;;;;;;4991518;28;20437;-60
2022/09/23 07:00:53;;;;;;;12.80;7.13;;;11.10;1.00;;;;;;4988700;28;20465;-60
2022/09/23 07:03:19;;;;;;;8.03;6.83;;;11.20;1.00;;;;;;4990383;28;21131;-60
2022/09/23 07:05:45;;;;;;;7.10;6.40;;;11.30;1.00;;;;;;4991291;28;20186;-60
2022/09/23 07:08:10;;;;;;;7.13;6.50;;;11.40;1.00;;;;;;4992072;28;20511;-60
2022/09/23 07:10:36;;;;;;;7.97;7.27;;;11.40;1.00;;;;;;4991277;28;20279;-60
2022/09/23 07:13:03;;;;;;;8.70;7.50;;;11.50;1.00;;;;;;4990114;28;20210;-60
2022/09/23 07:15:29;;;;;;;9.50;6.90;;;11.60;1.00;;;;;;4991210;28;20276;-60
2022/09/23 07:17:56;;;;;;;7.27;6.07;;;11.80;1.00;;;;;;5002056;28;20926;-60
2022/09/23 07:20:21;;;;;;;7.43;6.60;;;12.30;1.00;;;;;;5001354;28;20468;-60
2022/09/23 07:22:51;;;;;;;9.30;7.80;;;12.10;1.00;;;;;;4991422;28;20420;-60
2022/09/23 07:25:17;;;;;;;9.23;7.20;;;12.20;1.00;;;;;;4990972;28;20648;-60
2022/09/23 07:27:43;;;;;;;7.13;6.40;;;12.40;1.00;;;;;;4991073;28;20449;-60
2022/09/23 07:30:09;;;;;;;7.63;6.83;;;12.50;1.00;;;;;;4990611;28;20427;-60
2022/09/23 07:32:34;;;;;;;8.60;7.20;;;12.60;1.00;;;;;;4973731;28;20282;-59
2022/09/23 07:35:00;;;;;;;14.10;6.27;;;12.60;1.00;;;;;;4991074;28;20962;-59
2022/09/23 07:37:25;;;;;;;8.90;6.40;;;12.80;1.00;;;;;;4987661;28;20198;-61
2022/09/23 07:39:51;;;;;;;6.70;6.03;;;14.40;1.00;;;;;;4990961;28;20695;-61
2022/09/23 07:42:16;;;;;;;6.20;5.53;;;13.10;1.00;;;;;;4991067;28;20224;-60
2022/09/23 07:44:44;;;;;;;7.00;5.90;;;13.30;1.00;;;;;;4990215;28;20222;-60
2022/09/23 07:47:09;;;;;;;7.37;6.20;;;13.40;1.00;;;;;;5005110;28;20224;-60
2022/09/23 07:49:35;;;;;;;6.17;4.87;;;13.60;1.00;;;;;;4990964;28;20944;-60
2022/09/23 07:52:01;;;;;;;9.03;5.30;;;13.60;1.00;;;;;;4991073;28;20523;-60
2022/09/23 07:54:28;;;;;;;8.23;6.13;;;13.70;1.00;;;;;;4988130;28;20194;-60
2022/09/23 07:56:54;;;;;;;5.80;5.30;;;13.90;1.00;;;;;;4991543;28;20413;-59
2022/09/23 07:59:20;;;;;;;6.03;5.53;;;14.00;1.00;;;;;;4990037;28;20476;-59
2022/09/23 08:01:51;;;;;;;8.93;5.60;;;14.20;1.00;;;;;;4990772;28;20508;-60
2022/09/23 08:04:31;;;;;;;6.50;5.33;;;14.70;1.00;;;;;;4989954;28;20182;-60
2022/09/23 08:06:59;;;;;;;5.97;4.73;;;15.20;1.00;;;;;;4991263;28;20794;-60
2022/09/23 08:09:30;;;;;;;6.67;6.07;;;15.30;1.00;;;;;;4992650;28;20929;-60
2022/09/23 08:11:56;;;;;;;9.03;5.00;;;15.10;1.00;;;;;;4989909;28;20948;-59
2022/09/23 08:14:23;;;;;;;5.30;4.83;;;12.60;1.00;;;;;;4986683;28;20453;-60
2022/09/23 08:16:49;;;;;;;5.70;5.10;;;15.20;1.00;;;;;;4984497;28;20494;-60
2022/09/23 08:19:15;;;;;;;6.63;5.50;;;15.30;1.00;;;;;;4988585;28;20449;-60
2022/09/23 08:21:41;;;;;;;5.13;4.63;;;15.30;1.00;;;;;;4989453;28;20583;-59
2022/09/23 08:24:11;;;;;;;5.03;4.53;;;15.40;1.00;;;;;;4989367;28;20534;-60
2022/09/23 08:26:37;;;;;;;5.30;4.80;;;15.50;1.00;;;;;;4990196;28;20914;-60
2022/09/23 08:29:03;;;;;;;5.63;5.03;;;15.50;1.00;;;;;;4990955;28;20408;-61
2022/09/23 08:31:29;;;;;;;4.83;4.10;;;15.60;1.00;;;;;;4990071;28;20568;-60
2022/09/23 08:33:56;;;;;;;7.90;4.93;;;15.60;1.00;;;;;;4990504;28;20457;-59
2022/09/23 08:36:22;;;;;;;5.47;4.97;;;15.70;1.00;;;;;;4990877;28;20193;-61
2022/09/23 08:38:48;;;;;;;5.20;4.73;;;15.90;1.00;;;;;;4990011;28;20493;-60
2022/09/23 08:41:34;;;;;;;7.37;4.67;;;16.00;1.00;;;;;;4990000;28;20556;-60
2022/09/23 08:44:45;;;;;;;5.40;4.50;;;16.10;1.00;;;;;;4990726;28;20214;-60
2022/09/23 08:47:11;;;;;;;5.63;4.60;;;16.20;1.00;;;;;;4993655;28;20447;-62
2022/09/23 08:50:18;;;;;;;5.00;3.83;;;16.40;1.00;;;;;;4989939;28;20440;-61
2022/09/23 08:53:11;;;;;;;5.10;4.70;;;16.50;1.00;;;;;;4940127;28;20193;-60
2022/09/23 08:55:44;;;;;;;4.23;3.60;;;16.60;1.00;;;;;;4990309;28;20457;-61
2022/09/23 08:58:23;;;;;;;4.50;4.10;;;16.80;1.00;;;;;;4994074;28;20445;-60
2022/09/23 09:01:23;;;;;;;4.50;4.10;;;17.00;1.00;;;;;;4993599;28;20510;-60
2022/09/23 09:03:55;;;;;;;5.50;4.10;;;17.00;1.00;;;;;;4993948;28;20461;-60
2022/09/23 09:06:31;;;;;;;4.17;3.87;;;17.00;1.00;;;;;;4993291;28;20560;-60
2022/09/23 09:09:01;;;;;;;3.93;3.50;;;17.20;1.00;;;;;;4993557;28;20412;-59
2022/09/23 09:11:35;;;;;;;4.03;3.63;;;17.50;1.00;;;;;;4991721;28;21010;-59
2022/09/23 09:14:16;;;;;;;4.20;3.80;;;17.80;1.00;;;;;;4993382;28;20476;-60
2022/09/23 09:17:01;;;;;;;5.00;3.80;;;17.80;1.00;;;;;;4993835;28;20506;-60
2022/09/23 09:20:02;;;;;;;5.17;4.30;;;18.00;1.00;;;;;;4992063;28;20517;-61
2022/09/23 09:22:47;;;;;;;5.63;3.83;;;18.10;1.00;;;;;;4955689;28;20996;-61
2022/09/23 09:25:28;;;;;;;3.87;3.57;;;18.20;1.00;;;;;;4993923;28;20437;-60
2022/09/23 09:27:56;;;;;;;3.43;2.80;;;18.40;1.00;;;;;;4993222;28;20422;-60
2022/09/23 09:30:23;;;;;;;4.27;3.87;;;18.50;1.00;;;;;;4993444;28;20452;-60
2022/09/23 09:33:00;;;;;;;4.27;3.73;;;18.50;1.00;;;;;;4993189;28;20548;-60
2022/09/23 09:35:49;;;;;;;4.70;4.10;;;18.70;1.00;;;;;;4993504;28;20424;-61
2022/09/23 09:38:15;;;;;;;5.27;3.30;;;18.80;1.00;;;;;;4992951;28;20449;-60
2022/09/23 09:40:47;;;;;;;3.80;3.40;;;18.90;1.00;;;;;;4988091;28;20929;-60
2022/09/23 09:43:22;;;;;;;6.53;3.90;;;19.10;1.00;;;;;;4992740;28;20486;-61
2022/09/23 09:46:36;;;;;;;5.60;3.37;;;19.30;1.00;;;;;;4993343;28;20469;-61
2022/09/23 09:49:12;;;;;;;3.53;3.10;;;19.30;1.00;;;;;;4992624;28;20428;-60
2022/09/23 09:51:41;;;;;;;3.10;2.70;;;19.20;1.00;;;;;;4993136;28;20488;-60
2022/09/23 09:54:36;;;;;;;3.00;2.67;;;19.40;1.00;;;;;;4992663;28;20452;-60
2022/09/23 09:57:08;;;;;;;2.90;2.53;;;19.50;1.00;;;;;;4972417;28;20744;-60
2022/09/23 09:59:34;;;;;;;3.97;2.53;;;19.50;1.00;;;;;;4991642;28;20431;-61
2022/09/23 10:02:25;;;;;;;2.87;2.67;;;19.60;1.00;;;;;;4992209;28;20473;-61
2022/09/23 10:05:01;;;;;;;3.50;2.80;;;19.70;1.00;;;;;;4993001;28;20214;-61
2022/09/23 10:07:29;;;;;;;3.73;2.33;;;19.60;1.00;;;;;;4991749;28;20455;-61
2022/09/23 10:09:56;;;;;;;2.37;2.17;;;19.60;1.00;;;;;;4992340;28;20486;-60
2022/09/23 10:12:24;;;;;;;3.60;2.40;;;19.60;1.00;;;;;;4992124;28;20860;-59
2022/09/23 10:14:54;;;;;;;2.70;2.40;;;19.30;1.00;;;;;;4993463;28;20404;-60
2022/09/23 10:17:21;;;;;;;2.30;2.10;;;18.80;1.00;;;;;;4992279;28;20446;-61
2022/09/23 10:20:05;;;;;;;4.43;1.97;;;18.50;1.00;;;;;;4992313;28;20438;-60
2022/09/23 10:22:38;;;;;;;3.60;2.60;;;18.50;1.00;;;;;;4992124;28;20475;-60
2022/09/23 10:25:15;;;;;;;2.23;2.03;;;18.40;1.00;;;;;;4992785;28;20495;-60
2022/09/23 10:27:40;;;;;;;1.90;1.60;;;18.40;1.00;;;;;;4992474;28;20455;-60
2022/09/23 10:30:22;;;;;;;4.33;2.30;;;18.40;1.00;;;;;;4996205;28;20912;-60
2022/09/23 10:32:48;;;;;;;2.27;2.00;;;18.40;1.00;;;;;;4986852;28;20183;-60
2022/09/23 10:35:15;;;;;;;2.40;2.20;;;18.30;1.00;;;;;;4992405;28;20436;-60
2022/09/23 10:37:49;;;;;;;2.83;2.40;;;18.20;1.00;;;;;;4992230;28;20420;-60
2022/09/23 10:46:37;;;;;;;2.80;1.50;;;18.70;1.00;;;;;;4999458;28;20418;-62
2022/09/23 10:49:29;;;;;;;2.13;1.50;;;18.90;1.00;;;;;;5012149;28;20454;-60
2022/09/23 10:52:01;;;;;;;2.20;2.00;;;19.00;1.00;;;;;;4997959;28;20526;-60
2022/09/23 10:55:04;;;;;;;2.37;2.00;;;18.80;1.00;;;;;;4991597;28;20445;-59
2022/09/23 10:57:44;;;;;;;3.13;1.50;;;18.80;1.00;;;;;;4991236;28;20454;-61
2022/09/23 11:00:16;;;;;;;2.60;2.40;;;18.80;1.00;;;;;;4991921;28;20600;-60
2022/09/23 11:03:15;;;;;;;1.80;1.70;;;18.70;1.00;;;;;;4990790;28;21297;-61
2022/09/23 11:05:44;;;;;;;2.23;1.30;;;18.40;1.00;;;;;;4990960;28;20428;-60
2022/09/23 11:08:21;;;;;;;1.73;1.63;;;18.20;1.00;;;;;;4991642;28;20445;-61
2022/09/23 11:11:15;;;;;;;1.80;1.70;;;18.20;1.00;;;;;;4990097;28;21067;-60
2022/09/23 11:14:08;;;;;;;4.77;2.20;;;18.20;1.00;;;;;;4987871;28;20483;-60
2022/09/23 11:16:56;;;;;;;2.10;1.73;;;18.20;1.00;;;;;;4978925;28;20457;-61
2022/09/23 11:19:37;;;;;;;2.20;1.93;;;18.30;1.00;;;;;;4988829;28;20809;-61
2022/09/23 11:22:31;;;;;;;1.93;1.73;;;18.50;1.00;;;;;;4991770;28;20468;-61
2022/09/23 11:25:09;;;;;;;1.63;1.53;;;20.00;1.00;;;;;;4990696;28;20424;-61
2022/09/23 11:27:44;;;;;;;3.53;1.70;;;18.80;1.00;;;;;;4989069;28;20445;-61
2022/09/23 11:30:12;;;;;;;2.10;1.80;;;18.90;1.00;;;;;;4990305;28;20512;-60
2022/09/23 11:32:53;;;;;;;2.30;1.60;;;19.10;1.00;;;;;;4990929;28;20454;-59
2022/09/23 11:35:24;;;;;;;1.90;1.70;;;19.30;1.00;;;;;;4991354;28;20968;-60
2022/09/23 11:38:00;;;;;;;2.97;2.17;;;19.70;1.00;;;;;;4990407;28;20985;-59
2022/09/23 11:40:34;;;;;;;1.70;1.60;;;19.90;1.00;;;;;;4991154;28;20469;-60
2022/09/23 11:43:22;;;;;;;1.63;1.53;;;20.10;1.00;;;;;;4989472;28;20442;-60
2022/09/23 11:46:08;;;;;;;2.00;1.60;;;20.00;1.00;;;;;;4990577;28;20845;-59
2022/09/23 11:48:49;;;;;;;2.10;1.90;;;19.80;1.00;;;;;;4991149;28;20957;-59
2022/09/23 11:51:21;;;;;;;3.07;1.70;;;19.80;1.00;;;;;;4990296;28;20453;-61
2022/09/23 11:53:58;;;;;;;2.20;2.00;;;19.50;1.00;;;;;;4990925;28;20453;-59
2022/09/23 11:56:33;;;;;;;2.00;1.57;;;19.20;1.00;;;;;;4992833;28;20461;-60
2022/09/23 11:59:17;;;;;;;1.93;1.70;;;19.10;1.00;;;;;;4990888;28;20773;-58
2022/09/23 12:01:59;;;;;;;2.33;1.70;;;19.20;1.00;;;;;;4990449;28;20504;-59
2022/09/23 12:04:34;;;;;;;1.97;1.77;;;19.30;1.00;;;;;;4990693;28;20452;-60
2022/09/23 12:07:15;;;;;;;3.40;1.80;;;19.60;1.00;;;;;;4990650;28;20435;-58
2022/09/23 12:10:04;;;;;;;1.73;1.63;;;20.00;1.00;;;;;;4989513;28;20429;-59
2022/09/23 12:12:38;;;;;;;3.03;1.67;;;20.20;1.00;;;;;;4988384;28;20591;-59
2022/09/23 12:15:29;;;;;;;1.50;1.40;;;20.20;1.00;;;;;;4990008;28;20445;-60
2022/09/23 12:18:21;;;;;;;2.23;1.33;;;20.40;1.00;;;;;;4990786;28;20523;-60
2022/09/23 12:21:00;;;;;;;2.40;1.90;;;20.60;1.00;;;;;;4973144;28;20471;-60
2022/09/23 12:23:53;;;;;;;1.67;1.57;;;20.80;1.00;;;;;;4972696;28;20527;-60
2022/09/23 12:26:22;;;;;;;2.00;1.73;;;20.90;1.00;;;;;;4990065;28;20852;-60
2022/09/23 12:28:51;;;;;;;1.73;1.63;;;21.00;1.00;;;;;;4991031;28;20472;-60
2022/09/23 12:31:29;;;;;;;2.67;2.30;;;21.00;1.00;;;;;;4990819;28;20891;-58
2022/09/23 12:33:59;;;;;;;2.37;2.10;;;20.90;1.00;;;;;;4990471;28;20459;-60
2022/09/23 12:36:35;;;;;;;5.30;3.53;;;21.00;1.00;;;;;;4989712;28;20885;-59
2022/09/23 12:39:06;;;;;;;4.30;3.00;;;20.90;1.00;;;;;;4989690;28;20769;-60
2022/09/23 12:41:36;;;;;;;2.20;1.90;;;21.00;1.00;;;;;;4989410;28;21002;-59
2022/09/23 12:44:13;;;;;;;2.30;2.10;;;20.90;1.00;;;;;;4989888;28;20962;-59
2022/09/23 12:46:45;;;;;;;2.67;2.00;;;20.90;1.00;;;;;;4990135;28;20413;-60
2022/09/23 12:49:34;;;;;;;2.63;1.70;;;21.00;1.00;;;;;;4992881;28;20462;-60
2022/09/23 12:52:24;;;;;;;2.10;1.63;;;21.10;1.00;;;;;;4988118;28;20468;-60
2022/09/23 12:54:51;;;;;;;5.07;2.23;;;21.50;1.00;;;;;;4990516;28;20450;-59
2022/09/23 12:57:35;;;;;;;4.17;1.90;;;21.20;1.00;;;;;;4989883;28;20452;-59
2022/09/23 13:00:10;;;;;;;1.60;1.33;;;21.30;1.00;;;;;;4990472;28;20445;-58
2022/09/23 13:08:38;;;;;;;2.80;2.27;;;21.00;1.00;;;;;;4988845;28;21032;-60
2022/09/23 13:11:18;;;;;;;3.40;2.10;;;20.90;1.00;;;;;;4971453;28;20449;-60
2022/09/23 13:13:46;;;;;;;2.03;1.80;;;20.90;1.00;;;;;;4990082;28;20503;-60
2022/09/23 13:16:21;;;;;;;3.90;2.20;;;20.90;1.00;;;;;;4989094;28;20447;-60
2022/09/23 13:18:49;;;;;;;2.87;2.20;;;20.80;1.00;;;;;;4988946;28;20482;-60
2022/09/23 13:21:18;;;;;;;4.40;2.20;;;20.80;1.00;;;;;;4989684;28;20469;-60
2022/09/23 13:24:12;;;;;;;3.20;2.07;;;21.00;1.00;;;;;;4989882;28;20898;-60
2022/09/23 13:26:42;;;;;;;1.93;1.73;;;21.00;1.00;;;;;;4989624;28;20453;-61
2022/09/23 13:29:32;;;;;;;2.43;2.23;;;21.10;1.00;;;;;;4990220;28;20491;-60
2022/09/23 13:32:00;;;;;;;2.70;2.50;;;21.00;1.00;;;;;;4988744;28;20494;-60
2022/09/23 13:34:30;;;;;;;1.70;1.60;;;20.90;1.00;;;;;;4989352;28;20485;-60
2022/09/23 13:36:56;;;;;;;2.10;1.83;;;20.80;1.00;;;;;;4996877;28;20543;-59
2022/09/23 13:39:24;;;;;;;3.17;1.90;;;20.70;1.00;;;;;;4993899;28;20549;-60
2022/09/23 13:41:53;;;;;;;2.40;1.90;;;20.70;1.00;;;;;;4993100;28;20206;-60
2022/09/23 13:44:20;;;;;;;2.67;1.80;;;20.70;1.00;;;;;;4993506;28;20548;-60
2022/09/23 13:46:52;;;;;;;2.07;1.87;;;20.70;1.00;;;;;;4992794;28;20578;-59